Time;durP1;ratioP1;P1;durP2;ratioP2;P2;SDS_P1;SDS_P2;PMS_P1;PMS_P2;Temp;Humidity;BMP_temperature;BMP_pressure;BME280_temperature;BME280_humidity;BME280_pressure;Samples;Min_cycle;Max_cycle;Signal;HPM_P1;HPM_P2
2024/01/11 00:02:06;;;;;;;;;50.00;43.00;;;;;0.36;60.44;102075.97;5121679;27;45305;-82
2024/01/11 00:04:32;;;;;;;;;47.33;42.67;;;;;0.29;60.54;102077.69;5119760;27;45931;-80
2024/01/11 00:06:57;;;;;;;;;51.00;45.00;;;;;0.32;60.57;102076.81;5119756;27;62508;-78
2024/01/11 00:09:23;;;;;;;;;50.00;37.00;;;;;0.31;60.60;102077.69;5102665;27;45361;-80
2024/01/11 00:11:48;;;;;;;;;55.00;43.33;;;;;0.32;60.73;102082.06;5122285;27;45180;-81
2024/01/11 00:14:14;;;;;;;;;59.33;48.33;;;;;0.32;60.51;102082.06;5121540;27;45421;-82
2024/01/11 00:16:39;;;;;;;;;60.33;39.33;;;;;0.33;60.66;102073.34;5120725;27;45247;-82
2024/01/11 00:19:05;;;;;;;;;51.33;44.33;;;;;0.35;60.59;102066.38;5121367;27;45310;-83
2024/01/11 00:21:30;;;;;;;;;55.33;45.33;;;;;0.30;60.50;102044.53;5119841;27;47803;-81
2024/01/11 00:23:55;;;;;;;;;53.67;42.67;;;;;0.43;60.81;102064.72;5120299;27;59197;-83
2024/01/11 00:26:20;;;;;;;;;50.33;37.33;;;;;0.44;60.51;102076.94;5120252;27;54203;-78
2024/01/11 00:28:46;;;;;;;;;55.33;46.67;;;;;0.38;60.73;102071.63;5121656;27;54031;-81
2024/01/11 00:31:11;;;;;;;;;41.00;35.33;;;;;0.42;60.38;102077.81;5122719;27;45189;-84
2024/01/11 00:33:36;;;;;;;;;43.67;40.67;;;;;0.46;60.21;102075.22;5121220;27;45345;-81
2024/01/11 00:36:02;;;;;;;;;58.67;37.67;;;;;0.52;60.05;102082.22;5101174;27;53711;-80
2024/01/11 00:38:27;;;;;;;;;47.00;42.67;;;;;0.56;60.05;102091.88;5120470;27;45639;-80
2024/01/11 00:40:53;;;;;;;;;53.67;45.67;;;;;0.55;59.82;102080.53;5130912;27;58687;-80
2024/01/11 00:43:18;;;;;;;;;60.00;46.33;;;;;0.64;60.07;102103.28;5132174;27;45424;-80
2024/01/11 00:45:45;;;;;;;;;43.67;34.00;;;;;0.64;60.13;102105.03;5120298;27;56655;-82
2024/01/11 00:48:11;;;;;;;;;50.50;37.75;;;;;0.70;59.80;102105.09;5142178;27;45466;-79
2024/01/11 00:50:37;;;;;;;;;55.75;45.00;;;;;0.72;60.00;102105.97;5130539;27;45489;-81
2024/01/11 00:53:02;;;;;;;;;44.00;40.00;;;;;0.80;59.77;102101.69;5121603;27;47380;-82
2024/01/11 00:55:28;;;;;;;;;58.67;45.67;;;;;0.78;59.81;102103.41;5123215;27;45279;-84
2024/01/11 00:57:53;;;;;;;;;61.00;47.33;;;;;0.74;59.84;102101.63;5121936;27;45328;-80
2024/01/11 01:00:19;;;;;;;;;59.33;44.67;;;;;0.82;59.49;102108.69;5120893;27;45511;-82
2024/01/11 01:02:44;;;;;;;;;40.00;28.00;;;;;0.82;59.16;102103.47;5120787;27;46178;-84
2024/01/11 01:05:10;;;;;;;;;41.00;37.67;;;;;0.78;59.25;102108.63;5120837;27;45337;-82
2024/01/11 01:07:35;;;;;;;;;54.33;46.00;;;;;0.74;59.67;102101.63;5120966;27;45382;-82
2024/01/11 01:10:01;;;;;;;;;61.33;46.67;;;;;0.78;59.03;102108.63;5118993;27;45591;-84
2024/01/11 01:12:27;;;;;;;;;53.25;46.50;;;;;0.82;59.37;102110.44;5119793;27;45344;-81
2024/01/11 01:14:52;;;;;;;;;62.33;47.33;;;;;0.86;59.19;102106.97;5119873;27;45313;-81
2024/01/11 01:17:17;;;;;;;;;48.00;40.67;;;;;0.77;59.71;102101.66;5118222;27;45382;-79
2024/01/11 01:19:43;;;;;;;;;54.67;39.00;;;;;0.70;59.66;102105.97;5119492;27;46872;-81
2024/01/11 01:22:09;;;;;;;;;65.00;52.67;;;;;0.57;60.22;102099.75;5119773;27;45368;-81
2024/01/11 01:24:34;;;;;;;;;54.67;46.67;;;;;0.59;59.79;102103.25;5119432;27;45478;-82
2024/01/11 01:27:00;;;;;;;;;63.00;46.33;;;;;0.57;60.35;102099.75;5119817;27;45397;-78
2024/01/11 01:29:25;;;;;;;;;59.00;46.67;;;;;0.52;60.59;102111.94;5119429;27;45426;-79
2024/01/11 01:31:51;;;;;;;;;53.33;45.33;;;;;0.50;60.60;102118.88;5119424;27;45357;-79
2024/01/11 01:34:16;;;;;;;;;61.33;41.33;;;;;0.47;60.94;102124.09;5101262;27;45411;-80
2024/01/11 01:36:41;;;;;;;;;50.67;43.00;;;;;0.58;60.67;102126.81;5119325;27;45362;-81
2024/01/11 01:39:07;;;;;;;;;59.33;48.67;;;;;0.53;60.59;102115.44;5119471;27;45387;-82
2024/01/11 01:41:32;;;;;;;;;56.67;39.67;;;;;0.47;60.76;102113.63;5118939;27;47079;-81
2024/01/11 01:43:58;;;;;;;;;47.00;35.67;;;;;0.49;60.49;102132.81;5119127;27;45457;-80
2024/01/11 01:46:25;;;;;;;;;45.00;37.00;;;;;0.48;61.11;102131.06;5118983;27;45305;-80
2024/01/11 01:48:53;;;;;;;;;66.00;49.00;;;;;0.42;61.16;102133.63;5119670;27;45314;-80
2024/01/11 01:51:18;;;;;;;;;49.00;42.00;;;;;0.29;60.93;102126.53;5100129;27;47424;-80
2024/01/11 01:53:44;;;;;;;;;60.00;44.67;;;;;0.32;61.68;102141.38;5122535;27;45300;-81
2024/01/11 01:56:10;;;;;;;;;43.67;40.67;;;;;0.38;61.35;102157.13;5140007;27;45465;-81
2024/01/11 01:58:36;;;;;;;;;51.00;46.67;;;;;0.27;61.25;102138.72;5140183;27;45432;-80
2024/01/11 02:01:02;;;;;;;;;58.33;47.00;;;;;0.34;61.67;102151.00;5123307;27;46509;-83
2024/01/11 02:03:28;;;;;;;;;56.67;46.33;;;;;0.31;61.13;102137.88;5118588;27;45329;-80
2024/01/11 02:05:56;;;;;;;;;55.00;44.33;;;;;0.33;61.48;102151.84;5118998;27;45429;-80
2024/01/11 02:08:23;;;;;;;;;55.00;45.33;;;;;0.27;61.55;102157.03;5100550;27;45220;-81
2024/01/11 02:10:48;;;;;;;;;46.67;43.00;;;;;0.26;62.13;102163.09;5119220;27;45376;-79
2024/01/11 02:13:14;;;;;;;;;48.33;45.33;;;;;0.30;61.39;102164.91;5118222;27;45345;-79
2024/01/11 02:15:39;;;;;;;;;49.33;44.67;;;;;0.35;61.26;102171.06;5118818;27;45434;-80
2024/01/11 02:18:04;;;;;;;;;66.00;48.33;;;;;0.31;61.90;102169.28;5119333;27;45436;-81
2024/01/11 02:20:31;;;;;;;;;55.00;47.33;;;;;0.32;61.54;102175.38;5117199;27;46200;-80
2024/01/11 02:23:01;;;;;;;;;57.67;46.67;;;;;0.29;61.80;102173.63;5118712;27;45428;-82
2024/01/11 02:25:26;;;;;;;;;62.00;48.33;;;;;0.29;61.76;102171.00;5118888;27;45495;-83
2024/01/11 02:27:51;;;;;;;;;56.33;46.00;;;;;0.28;61.69;102174.50;5118062;27;61233;-79
2024/01/11 02:30:17;;;;;;;;;56.67;50.00;;;;;0.26;61.87;102176.19;5117925;27;53441;-80
2024/01/11 02:32:46;;;;;;;;;59.00;47.33;;;;;0.24;61.94;102189.25;5119087;27;45517;-80
2024/01/11 02:35:12;;;;;;;;;51.00;43.00;;;;;0.28;61.72;102190.19;5118514;27;45376;-79
2024/01/11 02:37:39;;;;;;;;;54.67;45.67;;;;;0.26;62.19;102184.94;5118523;27;45528;-82
2024/01/11 02:40:06;;;;;;;;;51.67;43.00;;;;;0.27;62.23;102185.81;5117705;27;45492;-79
2024/01/11 02:42:31;;;;;;;;;61.33;44.67;;;;;0.25;62.03;102174.44;5118479;27;45970;-78
2024/01/11 02:44:56;;;;;;;;;56.33;39.00;;;;;0.27;62.19;102189.31;5118665;27;45685;-80
2024/01/11 02:47:22;;;;;;;;;53.00;44.00;;;;;0.21;62.16;102185.72;5118730;27;45225;-78
2024/01/11 02:49:47;;;;;;;;;59.00;49.00;;;;;0.33;62.20;102192.84;5118493;27;45806;-80
2024/01/11 02:52:12;;;;;;;;;52.33;42.67;;;;;0.24;62.01;102176.16;5118231;27;49047;-79
2024/01/11 02:54:38;;;;;;;;;31.67;28.67;;;;;0.28;61.75;102183.22;5118042;27;45144;-80
2024/01/11 02:57:04;;;;;;;;;44.67;42.67;;;;;0.23;61.91;102178.78;5118648;27;45697;-82
2024/01/11 02:59:29;;;;;;;;;58.67;48.33;;;;;0.24;62.21;102177.91;5126345;27;46878;-85
2024/01/11 03:01:54;;;;;;;;;63.00;46.00;;;;;0.15;62.46;102167.34;5120759;27;45289;-84
2024/01/11 03:04:20;;;;;;;;;53.33;45.00;;;;;0.20;61.82;102186.59;5124483;27;45441;-81
2024/01/11 03:06:45;;;;;;;;;46.67;40.67;;;;;0.22;62.25;102179.63;5118200;27;45243;-81
2024/01/11 03:09:11;;;;;;;;;58.67;48.67;;;;;0.17;62.11;102178.72;5118583;27;46182;-83
2024/01/11 03:11:37;;;;;;;;;54.00;42.67;;;;;0.20;62.36;102183.97;5116857;27;45524;-81
2024/01/11 03:14:03;;;;;;;;;39.67;35.67;;;;;0.22;62.48;102192.72;5118158;27;45574;-80
2024/01/11 03:16:28;;;;;;;;;44.00;41.00;;;;;0.21;62.34;102204.03;5100011;27;45364;-81
2024/01/11 03:18:53;;;;;;;;;66.00;45.67;;;;;0.23;62.54;102202.31;5118163;27;45764;-83
2024/01/11 03:21:19;;;;;;;;;55.33;48.00;;;;;0.24;62.02;102191.00;5117358;27;45440;-80
2024/01/11 03:23:44;;;;;;;;;57.00;46.33;;;;;0.26;61.93;102192.78;5117260;27;45472;-80
2024/01/11 03:26:16;;;;;;;;;63.33;48.67;;;;;0.28;62.29;102200.66;5117980;27;45356;-80
2024/01/11 03:28:42;;;;;;;;;52.33;44.33;;;;;0.20;62.07;102194.44;5117173;27;46792;-80
2024/01/11 03:31:09;;;;;;;;;48.00;43.00;;;;;0.19;62.37;102195.31;5117878;27;45352;-79
2024/01/11 03:33:34;;;;;;;;;58.00;44.00;;;;;0.08;62.28;102174.25;5120847;27;45361;-80
2024/01/11 03:36:05;;;;;;;;;51.00;42.67;;;;;0.25;62.67;102203.22;5121553;27;45547;-82
2024/01/11 03:38:31;;;;;;;;;46.00;43.67;;;;;0.19;61.97;102190.94;5120945;27;46041;-80
2024/01/11 03:40:56;;;;;;;;;65.33;48.67;;;;;0.20;61.79;102186.59;5120924;27;45434;-78
2024/01/11 03:43:21;;;;;;;;;51.33;39.00;;;;;0.18;62.34;102196.16;5120712;27;45377;-83
2024/01/11 03:45:47;;;;;;;;;64.33;43.67;;;;;0.26;61.91;102192.78;5120584;27;59848;-79
2024/01/11 03:48:12;;;;;;;;;56.33;45.33;;;;;0.21;62.31;102198.81;5121126;27;45302;-79
2024/01/11 03:50:37;;;;;;;;;48.00;37.00;;;;;0.27;61.95;102209.38;5121264;27;45421;-79
2024/01/11 03:53:04;;;;;;;;;52.33;44.00;;;;;0.33;61.81;102203.31;5120667;27;55306;-79
2024/01/11 03:55:29;;;;;;;;;46.67;40.67;;;;;0.35;62.05;102201.59;5119981;27;45446;-79
2024/01/11 03:57:54;;;;;;;;;57.33;41.33;;;;;0.37;62.00;102199.88;5120558;27;61653;-82
2024/01/11 04:00:19;;;;;;;;;58.33;44.67;;;;;0.32;61.96;102207.66;5120764;27;55707;-81
2024/01/11 04:02:45;;;;;;;;;49.33;34.67;;;;;0.28;61.97;102198.03;5101425;27;63176;-79
2024/01/11 04:05:10;;;;;;;;;58.67;45.00;;;;;0.19;62.38;102187.44;5122096;27;45248;-80
2024/01/11 04:07:35;;;;;;;;;40.33;34.67;;;;;0.24;62.52;102191.00;5141974;27;45385;-83
2024/01/11 04:10:01;;;;;;;;;48.33;30.00;;;;;0.29;62.43;102207.63;5114407;27;51322;-79
2024/01/11 04:12:26;;;;;;;;;48.00;37.00;;;;;0.25;62.52;102205.81;5121313;27;45257;-81
2024/01/11 04:14:51;;;;;;;;;50.00;41.33;;;;;0.18;62.19;102204.00;5120926;27;54007;-82
2024/01/11 04:17:17;;;;;;;;;51.67;45.00;;;;;0.17;62.53;102213.59;5120674;27;46563;-80
2024/01/11 04:19:42;;;;;;;;;46.67;42.33;;;;;0.16;62.54;102213.59;5120263;27;58989;-81
2024/01/11 04:22:07;;;;;;;;;46.00;36.00;;;;;0.15;62.85;102224.91;5120021;27;45817;-83
2024/01/11 04:24:33;;;;;;;;;48.67;43.33;;;;;0.12;62.35;102222.22;5120417;27;45305;-79
2024/01/11 04:26:58;;;;;;;;;62.33;48.00;;;;;0.10;61.97;102222.22;5120567;27;60067;-79
2024/01/11 04:29:23;;;;;;;;;48.00;40.00;;;;;-0.02;62.42;102211.59;5120329;27;59445;-79
2024/01/11 04:31:49;;;;;;;;;59.67;45.67;;;;;0.03;62.42;102230.84;5102083;27;45440;-78
2024/01/11 04:34:14;;;;;;;;;43.33;39.33;;;;;0.04;62.59;102227.38;5120382;27;45349;-80
2024/01/11 04:36:39;;;;;;;;;46.00;43.00;;;;;0.09;62.48;102235.28;5119513;27;61394;-81
2024/01/11 04:39:06;;;;;;;;;59.33;42.00;;;;;0.10;62.43;102237.03;5120089;27;45451;-80
2024/01/11 04:41:31;;;;;;;;;57.33;47.33;;;;;-0.03;62.29;102221.16;5120352;27;45490;-80
2024/01/11 04:43:57;;;;;;;;;57.00;39.00;;;;;0.05;62.67;102231.75;5119555;27;45397;-79
2024/01/11 04:46:23;;;;;;;;;61.67;45.33;;;;;0.04;62.36;102235.22;5119543;27;46653;-80
2024/01/11 04:48:49;;;;;;;;;67.33;47.33;;;;;-0.10;63.32;102214.13;5119787;27;45403;-81
2024/01/11 04:51:16;;;;;;;;;60.33;46.67;;;;;-0.02;62.77;102237.75;5120332;27;45279;-79
2024/01/11 04:53:43;;;;;;;;;45.67;40.67;;;;;-0.05;63.25;102230.75;5119365;27;45478;-80
2024/01/11 04:56:10;;;;;;;;;43.00;40.00;;;;;0.01;62.97;102239.53;5119768;27;46021;-78
2024/01/11 04:58:37;;;;;;;;;50.33;43.00;;;;;-0.02;62.58;102243.84;5119825;27;45445;-80
2024/01/11 05:01:03;;;;;;;;;41.33;41.33;;;;;-0.06;63.24;102230.72;5120118;27;45523;-81
2024/01/11 05:03:29;;;;;;;;;48.67;45.00;;;;;-0.03;63.07;102242.09;5119028;27;45734;-79
2024/01/11 05:05:54;;;;;;;;;50.67;42.67;;;;;-0.11;63.47;102235.91;5120203;27;45925;-78
2024/01/11 05:08:20;;;;;;;;;53.67;46.67;;;;;-0.07;62.71;102235.06;5119644;27;45358;-82
2024/01/11 05:10:45;;;;;;;;;48.33;39.33;;;;;-0.17;63.34;102230.56;5119805;27;52775;-79
2024/01/11 05:13:10;;;;;;;;;51.00;45.33;;;;;-0.08;63.37;102250.75;5120210;27;45363;-79
2024/01/11 05:15:36;;;;;;;;;56.67;45.00;;;;;-0.06;63.65;102242.06;5122108;27;46085;-81
2024/01/11 05:18:01;;;;;;;;;58.67;43.00;;;;;-0.03;63.52;102247.31;5123021;27;45348;-80
2024/01/11 05:20:26;;;;;;;;;51.00;44.33;;;;;-0.08;63.55;102238.56;5120504;27;45283;-83
2024/01/11 05:22:51;;;;;;;;;48.67;43.00;;;;;-0.13;63.08;102229.78;5119411;27;45195;-82
2024/01/11 05:25:17;;;;;;;;;45.00;42.00;;;;;-0.04;63.90;102240.34;5118605;27;67830;-79
2024/01/11 05:27:42;;;;;;;;;50.33;44.33;;;;;-0.05;63.61;102237.72;5119285;27;45247;-84
2024/01/11 05:30:08;;;;;;;;;41.00;36.67;;;;;0.00;63.32;102243.91;5119760;27;45403;-80
2024/01/11 05:32:33;;;;;;;;;35.67;30.67;;;;;-0.02;63.21;102238.63;5119803;27;45425;-80
2024/01/11 05:34:58;;;;;;;;;56.33;43.67;;;;;-0.09;63.40;102222.84;5120092;27;63155;-79
2024/01/11 05:37:23;;;;;;;;;50.33;43.33;;;;;-0.08;63.83;102242.91;5119140;27;51706;-82
2024/01/11 05:39:49;;;;;;;;;52.67;47.00;;;;;-0.06;64.05;102247.28;5119057;27;45493;-83
2024/01/11 05:42:14;;;;;;;;;50.67;42.67;;;;;-0.12;63.74;102230.66;5119237;27;46900;-80
2024/01/11 05:44:40;;;;;;;;;64.00;45.00;;;;;-0.04;63.78;102261.25;5118281;27;54249;-82
2024/01/11 05:47:05;;;;;;;;;33.67;23.33;;;;;-0.01;63.79;102261.31;5119351;27;45401;-82
2024/01/11 05:49:31;;;;;;;;;41.33;38.33;;;;;-0.01;63.80;102266.53;5122647;27;45329;-80
2024/01/11 05:51:56;;;;;;;;;51.67;45.33;;;;;-0.01;63.79;102263.91;5140072;27;55193;-83
2024/01/11 05:54:21;;;;;;;;;45.33;43.00;;;;;0.02;64.27;102270.94;5125620;27;46200;-81
2024/01/11 05:56:47;;;;;;;;;35.33;31.67;;;;;-0.01;63.91;102242.13;5119156;27;45328;-82
2024/01/11 05:59:12;;;;;;;;;46.33;39.33;;;;;0.14;63.82;102262.41;5121181;27;45440;-81
2024/01/11 06:01:44;;;;;;;;;52.00;45.00;;;;;0.10;63.52;102268.44;5119325;27;45349;-84
2024/01/11 06:04:09;;;;;;;;;52.67;41.67;;;;;0.03;63.97;102275.31;5110904;27;47476;-81
2024/01/11 06:06:35;;;;;;;;;48.00;42.33;;;;;0.07;63.90;102284.09;5139974;27;45376;-80
2024/01/11 06:09:00;;;;;;;;;47.33;41.00;;;;;0.04;63.94;102287.53;5121696;27;45435;-79
2024/01/11 06:11:25;;;;;;;;;51.67;43.33;;;;;0.04;63.71;102295.38;5121053;27;45423;-78
2024/01/11 06:13:51;;;;;;;;;44.67;40.00;;;;;0.07;63.80;102284.09;5114976;27;45498;-77
2024/01/11 06:16:16;;;;;;;;;47.33;44.33;;;;;0.10;63.50;102298.06;5120756;27;45409;-83
2024/01/11 06:18:42;;;;;;;;;54.67;46.67;;;;;0.09;63.83;102300.69;5118047;27;45415;-80
2024/01/11 06:21:07;;;;;;;;;51.67;39.33;;;;;0.10;63.98;102310.28;5118874;27;45680;-81
2024/01/11 06:23:33;;;;;;;;;56.33;44.33;;;;;0.07;64.03;102315.47;5118588;27;46127;-81
2024/01/11 06:25:58;;;;;;;;;57.67;46.33;;;;;0.12;63.84;102324.25;5118738;27;45388;-81
2024/01/11 06:28:23;;;;;;;;;34.33;25.00;;;;;0.08;64.48;102306.78;5118926;27;45956;-79
2024/01/11 06:30:49;;;;;;;;;46.67;43.00;;;;;-0.01;63.89;102292.69;5119390;27;45291;-81
2024/01/11 06:33:14;;;;;;;;;48.67;45.00;;;;;0.07;63.74;102292.81;5118205;27;46228;-79
2024/01/11 06:35:39;;;;;;;;;52.33;45.00;;;;;0.07;64.53;102305.88;5117538;27;45259;-81
2024/01/11 06:38:05;;;;;;;;;44.33;36.67;;;;;0.07;64.50;102308.50;5118370;27;45262;-79
2024/01/11 06:40:30;;;;;;;;;55.00;45.33;;;;;0.01;64.24;102307.56;5121412;27;45427;-79
2024/01/11 06:42:55;;;;;;;;;45.67;39.33;;;;;0.10;64.09;102339.06;5128204;27;56414;-79
2024/01/11 06:45:21;;;;;;;;;41.67;34.33;;;;;0.04;64.25;102342.47;5118281;27;65230;-80
2024/01/11 06:47:47;;;;;;;;;54.33;43.00;;;;;0.08;64.19;102357.34;5123074;27;52142;-81
2024/01/11 06:50:12;;;;;;;;;55.00;45.67;;;;;0.12;64.76;102360.88;5139049;27;45553;-77
2024/01/11 06:52:38;;;;;;;;;45.33;40.00;;;;;0.13;64.07;102360.94;5136998;27;46031;-82
2024/01/11 06:55:04;;;;;;;;;59.67;45.00;;;;;0.13;64.13;102352.19;5124247;27;45306;-81
2024/01/11 06:57:29;;;;;;;;;52.00;40.00;;;;;0.12;64.61;102355.66;5121420;27;45501;-81
2024/01/11 06:59:55;;;;;;;;;53.67;44.33;;;;;0.13;64.19;102362.63;5116574;27;45576;-81
2024/01/11 07:02:20;;;;;;;;;60.33;49.00;;;;;0.07;64.79;102352.09;5123343;27;45885;-80
2024/01/11 07:04:46;;;;;;;;;50.67;42.67;;;;;0.19;64.98;102370.59;5117743;27;45596;-81
2024/01/11 07:07:11;;;;;;;;;51.67;42.00;;;;;0.19;64.80;102368.84;5097436;27;60850;-82
2024/01/11 07:09:36;;;;;;;;;51.33;41.67;;;;;0.19;64.40;102362.75;5117041;27;46310;-80
2024/01/11 07:12:02;;;;;;;;;55.67;46.33;;;;;0.16;64.68;102353.13;5117738;27;45560;-80
2024/01/11 07:14:28;;;;;;;;;41.67;39.33;;;;;0.12;64.11;102351.28;5126495;27;45515;-81
2024/01/11 07:16:54;;;;;;;;;51.00;40.00;;;;;0.13;64.25;102360.94;5120412;27;45463;-80
2024/01/11 07:19:20;;;;;;;;;43.67;40.00;;;;;0.13;64.46;102346.94;5116506;27;45584;-79
2024/01/11 07:21:46;;;;;;;;;48.67;43.67;;;;;0.15;64.53;102368.81;5134780;27;46047;-79
2024/01/11 07:24:11;;;;;;;;;60.00;48.67;;;;;0.11;64.71;102380.06;5137479;27;57269;-82
2024/01/11 07:26:36;;;;;;;;;50.00;45.00;;;;;0.19;64.65;102388.91;5138683;27;45281;-79
2024/01/11 07:29:02;;;;;;;;;60.33;45.67;;;;;0.20;64.55;102382.81;5138468;27;45222;-77
2024/01/11 07:31:28;;;;;;;;;45.33;42.33;;;;;0.17;64.96;102385.41;5138049;27;46594;-78
2024/01/11 07:33:53;;;;;;;;;53.67;48.33;;;;;0.11;64.34;102401.88;5138012;27;45436;-78
2024/01/11 07:36:18;;;;;;;;;55.67;48.00;;;;;-0.02;65.54;102374.63;5138187;27;45202;-80
2024/01/11 07:38:44;;;;;;;;;55.33;48.33;;;;;0.06;65.18;102385.22;5137995;27;45490;-78
2024/01/11 07:41:09;;;;;;;;;70.00;51.00;;;;;0.05;65.03;102391.31;5137842;27;46064;-78
2024/01/11 07:43:35;;;;;;;;;65.00;52.00;;;;;0.11;64.87;102390.53;5137933;27;45453;-84
2024/01/11 07:46:01;;;;;;;;;67.67;47.33;;;;;0.11;64.89;102372.19;5140746;27;45331;-79
2024/01/11 07:48:27;;;;;;;;;44.33;28.67;;;;;0.23;64.91;102401.16;5141650;27;45323;-78
2024/01/11 07:50:52;;;;;;;;;59.33;45.67;;;;;0.23;64.96;102390.72;5137702;27;45780;-80
2024/01/11 07:53:18;;;;;;;;;61.67;49.00;;;;;0.26;65.40;102390.75;5135322;27;45287;-80
2024/01/11 07:55:43;;;;;;;;;58.00;44.00;;;;;0.24;64.65;102395.09;5126219;27;45396;-81
2024/01/11 07:58:08;;;;;;;;;52.67;44.33;;;;;0.31;65.19;102410.03;5138523;27;45355;-83
2024/01/11 08:00:34;;;;;;;;;44.33;39.67;;;;;0.29;65.33;102411.75;5121119;27;47532;-82
2024/01/11 08:03:00;;;;;;;;;56.67;43.00;;;;;0.24;65.23;102402.94;5117466;27;45400;-78
2024/01/11 08:05:25;;;;;;;;;54.00;45.67;;;;;0.29;64.83;102423.09;5117180;27;45417;-85
2024/01/11 08:07:51;;;;;;;;;56.00;46.00;;;;;0.28;64.70;102416.09;5117187;27;45202;-80
2024/01/11 08:10:16;;;;;;;;;61.00;49.33;;;;;0.37;65.04;102414.47;5116584;27;45931;-80
2024/01/11 08:12:42;;;;;;;;;59.33;43.67;;;;;0.37;64.90;102425.81;5127258;27;45335;-83
2024/01/11 08:15:12;;;;;;;;;55.00;47.00;;;;;0.40;64.67;102420.66;5120489;27;45391;-80
2024/01/11 08:17:38;;;;;;;;;55.33;43.33;;;;;0.45;64.58;102421.59;5135791;27;45600;-79
2024/01/11 08:20:04;;;;;;;;;56.00;47.33;;;;;0.51;64.64;102418.16;5138337;27;45432;-79
2024/01/11 08:22:33;;;;;;;;;51.67;45.00;;;;;0.51;64.05;102419.03;5139390;27;45762;-80
2024/01/11 08:24:58;;;;;;;;;54.00;36.33;;;;;0.44;63.87;102385.81;5133346;27;45443;-79
2024/01/11 08:27:24;;;;;;;;;66.00;47.33;;;;;0.48;64.46;102398.06;5108643;27;53879;-81
2024/01/11 08:29:49;;;;;;;;;56.67;49.00;;;;;0.58;64.08;102407.81;5126240;27;45304;-81
2024/01/11 08:32:14;;;;;;;;;39.67;34.67;;;;;0.62;63.55;102410.47;5122985;27;45552;-79
2024/01/11 08:34:40;;;;;;;;;65.33;52.00;;;;;0.65;63.56;102419.25;5127452;27;45376;-79
2024/01/11 08:37:05;;;;;;;;;69.67;48.00;;;;;0.64;63.34;102424.44;5100818;27;45641;-81
2024/01/11 08:39:31;;;;;;;;;63.33;53.00;;;;;0.72;63.59;102426.34;5117858;27;46582;-80
2024/01/11 08:41:56;;;;;;;;;59.00;45.67;;;;;0.64;63.84;102403.50;5138782;27;45485;-79
2024/01/11 08:44:22;;;;;;;;;64.33;51.00;;;;;0.81;63.07;102425.59;5123454;27;45334;-81
2024/01/11 08:46:47;;;;;;;;;53.67;46.00;;;;;0.86;63.12;102426.50;5117868;27;49988;-79
2024/01/11 08:49:12;;;;;;;;;61.00;46.00;;;;;0.85;62.86;102424.75;5098886;27;51401;-79
2024/01/11 08:51:38;;;;;;;;;60.00;52.67;;;;;0.94;63.03;102418.75;5118213;27;45429;-78
2024/01/11 08:54:04;;;;;;;;;57.00;48.33;;;;;1.02;62.83;102423.22;5118698;27;45395;-80
2024/01/11 08:56:29;;;;;;;;;59.33;50.67;;;;;1.15;62.01;102424.25;5118102;27;45475;-79
2024/01/11 08:58:54;;;;;;;;;66.00;47.33;;;;;1.13;61.57;102424.25;5117786;27;46049;-80
2024/01/11 09:01:20;;;;;;;;;54.00;47.33;;;;;1.20;62.28;102424.31;5117719;27;45331;-82
2024/01/11 09:03:47;;;;;;;;;62.67;52.67;;;;;1.27;61.95;102424.41;5118188;27;45939;-81
2024/01/11 09:06:13;;;;;;;;;66.67;48.00;;;;;1.34;61.31;102433.22;5116448;27;45493;-80
2024/01/11 09:08:41;;;;;;;;;61.00;46.33;;;;;1.34;60.98;102435.84;5111769;27;47878;-80
2024/01/11 09:11:06;;;;;;;;;58.67;44.00;;;;;1.04;60.98;102389.19;5117380;27;45453;-80
2024/01/11 09:13:31;;;;;;;;;54.33;44.00;;;;;1.29;60.58;102434.91;5116842;27;45593;-79
2024/01/11 09:15:58;;;;;;;;;61.00;47.67;;;;;1.30;60.33;102452.38;5117988;27;45584;-78
2024/01/11 09:18:23;;;;;;;;;51.67;46.33;;;;;1.32;60.25;102448.06;5117325;27;45779;-79
2024/01/11 09:20:48;;;;;;;;;57.67;40.33;;;;;1.33;60.44;102440.22;5131956;27;48077;-80
2024/01/11 09:23:14;;;;;;;;;66.00;47.67;;;;;1.35;60.41;102448.09;5138040;27;55662;-80
2024/01/11 09:25:39;;;;;;;;;43.33;33.67;;;;;1.29;59.66;102445.38;5135274;27;45707;-80
2024/01/11 09:28:05;;;;;;;;;62.33;45.33;;;;;1.20;59.43;102432.19;5126608;27;45416;-81
2024/01/11 09:30:30;;;;;;;;;61.00;47.33;;;;;1.15;59.78;102425.13;5117731;27;45534;-80
2024/01/11 09:32:56;;;;;;;;;54.33;44.00;;;;;1.23;59.88;102442.69;5119510;27;45325;-79
2024/01/11 09:35:22;;;;;;;;;57.00;45.33;;;;;1.27;59.70;102445.38;5120546;27;45443;-79
2024/01/11 09:37:48;;;;;;;;;68.33;50.33;;;;;1.33;59.17;102453.31;5129350;27;45367;-80
2024/01/11 09:40:14;;;;;;;;;59.67;50.33;;;;;1.33;59.05;102434.09;5139767;27;45221;-80
2024/01/11 09:42:39;;;;;;;;;67.67;50.67;;;;;1.36;58.61;102439.34;5140341;27;45256;-80
2024/01/11 09:45:08;;;;;;;;;53.67;49.00;;;;;1.35;58.92;102440.22;5134441;27;45514;-79
2024/01/11 09:47:36;;;;;;;;;65.33;51.33;;;;;1.38;58.40;102448.13;5129059;27;45476;-80
2024/01/11 09:50:02;;;;;;;;;57.00;47.00;;;;;1.34;58.42;102441.97;5118955;27;45812;-81
2024/01/11 09:52:30;;;;;;;;;63.67;50.33;;;;;1.31;58.20;102426.22;5133453;27;45325;-80
2024/01/11 09:54:55;;;;;;;;;66.00;51.67;;;;;1.43;57.83;102435.94;5128298;27;45386;-80
2024/01/11 09:57:28;;;;;;;;;61.67;48.67;;;;;1.50;57.84;102444.75;5136384;27;56898;-79
2024/01/11 09:59:55;;;;;;;;;63.67;49.00;;;;;1.58;58.26;102425.63;5138968;27;45323;-77
2024/01/11 10:02:23;;;;;;;;;71.00;53.00;;;;;1.73;58.36;102435.38;5139208;27;45461;-82
2024/01/11 10:04:48;;;;;;;;;59.67;50.00;;;;;1.83;57.97;102438.97;5129798;27;45580;-80
2024/01/11 10:07:18;;;;;;;;;63.00;49.67;;;;;1.99;57.10;102443.50;5118416;27;51191;-79
2024/01/11 10:09:44;;;;;;;;;65.33;50.33;;;;;2.13;57.10;102436.63;5107333;27;45448;-80
2024/01/11 10:12:09;;;;;;;;;45.00;42.33;;;;;2.15;55.90;102423.50;5122738;27;45604;-83
2024/01/11 10:14:35;;;;;;;;;48.00;42.50;;;;;2.41;56.34;102457.84;5118168;27;45478;-80
2024/01/11 10:17:01;;;;;;;;;62.67;51.67;;;;;2.54;55.81;102450.03;5123813;27;50593;-80
2024/01/11 10:19:26;;;;;;;;;69.00;55.00;;;;;2.70;55.50;102444.88;5128818;27;45533;-81
2024/01/11 10:21:52;;;;;;;;;61.50;47.00;;;;;2.88;54.63;102445.88;5118113;27;45486;-79
2024/01/11 10:24:20;;;;;;;;;64.75;49.25;;;;;2.99;54.38;102421.38;5102632;27;45551;-82
2024/01/11 10:26:45;;;;;;;;;64.25;51.00;;;;;3.22;54.21;102410.09;5124986;27;45439;-81
2024/01/11 10:29:12;;;;;;;;;56.00;44.50;;;;;3.46;54.07;102397.88;5129157;27;45545;-79
2024/01/11 10:31:38;;;;;;;;;64.50;49.75;;;;;3.63;52.36;102411.94;5118482;27;45187;-80
2024/01/11 10:34:04;;;;;;;;;63.00;50.75;;;;;3.87;51.99;102415.47;5118135;27;45729;-81
2024/01/11 10:36:33;;;;;;;;;54.75;40.25;;;;;4.09;51.17;102404.97;5118028;27;46456;-82
2024/01/11 10:39:04;;;;;;;;;66.25;53.75;;;;;4.23;50.81;102396.16;5117155;27;62122;-83
2024/01/11 10:41:37;;;;;;;;;52.00;43.75;;;;;4.32;50.63;102383.88;5117079;27;45368;-82
2024/01/11 10:44:04;;;;;;;;;62.50;48.75;;;;;4.52;49.39;102407.53;5118400;27;45229;-82
2024/01/11 10:46:34;;;;;;;;;56.00;44.00;;;;;4.70;50.90;102402.22;5102596;27;47746;-82
2024/01/11 10:49:04;;;;;;;;;69.75;55.25;;;;;4.89;49.45;102399.53;5120469;27;45770;-81
2024/01/11 10:51:32;;;;;;;;;63.00;51.00;;;;;4.83;47.87;102410.09;5129270;27;45468;-81
2024/01/11 10:54:00;;;;;;;;;67.75;49.75;;;;;4.72;48.26;102416.28;5121308;27;45460;-82
2024/01/11 10:56:27;;;;;;;;;68.25;54.25;;;;;4.79;47.25;102410.97;5117029;27;46390;-83
2024/01/11 10:58:55;;;;;;;;;71.00;51.00;;;;;4.75;49.32;102399.56;5117543;27;45658;-79
2024/01/11 11:01:22;;;;;;;;;61.00;49.00;;;;;4.79;47.02;102384.63;5117159;27;45444;-80
2024/01/11 11:03:49;;;;;;;;;66.00;48.50;;;;;4.96;47.36;102398.63;5117772;27;45384;-78
2024/01/11 11:06:18;;;;;;;;;75.75;54.25;;;;;5.14;47.32;102398.53;5116993;27;45402;-81
2024/01/11 11:08:44;;;;;;;;;66.75;50.50;;;;;5.18;46.89;102392.34;5132525;27;45404;-77
2024/01/11 11:11:11;;;;;;;;;61.00;48.50;;;;;5.39;47.36;102387.84;5119036;27;46712;-83